sensor_id;sensor_type;location;lat;lon;timestamp;pressure;altitude;pressure_sealevel;temperature;humidity
59757;BME280;45631;51.962;5.974;2023-03-21T00:01:52;101495.50;;;8.93;100.00
59757;BME280;45631;51.962;5.974;2023-03-21T00:04:21;101497.16;;;8.96;100.00
59757;BME280;45631;51.962;5.974;2023-03-21T00:06:50;101492.88;;;8.93;100.00
59757;BME280;45631;51.962;5.974;2023-03-21T00:09:19;101488.56;;;8.92;100.00
59757;BME280;45631;51.962;5.974;2023-03-21T00:11:47;101481.59;;;8.91;100.00
59757;BME280;45631;51.962;5.974;2023-03-21T00:14:16;101481.84;;;8.87;100.00
59757;BME280;45631;51.962;5.974;2023-03-21T00:16:46;101484.22;;;8.91;100.00
59757;BME280;45631;51.962;5.974;2023-03-21T00:19:19;101484.22;;;8.91;100.00
59757;BME280;45631;51.962;5.974;2023-03-21T00:21:47;101484.09;;;8.94;100.00
59757;BME280;45631;51.962;5.974;2023-03-21T00:24:33;101480.69;;;8.92;100.00
59757;BME280;45631;51.962;5.974;2023-03-21T00:27:02;101478.38;;;8.86;100.00
59757;BME280;45631;51.962;5.974;2023-03-21T00:29:51;101467.25;;;8.81;100.00
59757;BME280;45631;51.962;5.974;2023-03-21T00:32:20;101465.38;;;8.83;100.00
59757;BME280;45631;51.962;5.974;2023-03-21T00:34:50;101471.41;;;8.85;100.00
59757;BME280;45631;51.962;5.974;2023-03-21T00:37:39;101462.63;;;8.86;100.00
59757;BME280;45631;51.962;5.974;2023-03-21T00:40:08;101454.13;;;8.81;100.00
59757;BME280;45631;51.962;5.974;2023-03-21T00:42:51;101456.59;;;8.84;100.00
59757;BME280;45631;51.962;5.974;2023-03-21T00:45:19;101454.13;;;8.81;100.00
59757;BME280;45631;51.962;5.974;2023-03-21T00:47:48;101450.59;;;8.82;100.00
59757;BME280;45631;51.962;5.974;2023-03-21T00:50:18;101446.34;;;8.79;100.00
59757;BME280;45631;51.962;5.974;2023-03-21T00:52:47;101445.41;;;8.80;100.00
59757;BME280;45631;51.962;5.974;2023-03-21T00:55:17;101446.81;;;8.88;100.00
59757;BME280;45631;51.962;5.974;2023-03-21T00:57:46;101448.88;;;8.81;100.00
59757;BME280;45631;51.962;5.974;2023-03-21T01:00:25;101443.41;;;8.86;100.00
59757;BME280;45631;51.962;5.974;2023-03-21T01:02:54;101447.66;;;8.88;100.00
59757;BME280;45631;51.962;5.974;2023-03-21T01:05:51;101436.44;;;8.85;100.00
59757;BME280;45631;51.962;5.974;2023-03-21T01:08:33;101439.94;;;8.85;100.00
59757;BME280;45631;51.962;5.974;2023-03-21T01:11:19;101439.03;;;8.86;100.00
59757;BME280;45631;51.962;5.974;2023-03-21T01:13:52;101432.06;;;8.85;100.00
59757;BME280;45631;51.962;5.974;2023-03-21T01:16:37;101422.44;;;8.86;100.00
59757;BME280;45631;51.962;5.974;2023-03-21T01:19:12;101432.84;;;8.87;100.00
59757;BME280;45631;51.962;5.974;2023-03-21T01:21:54;101422.50;;;8.84;100.00
59757;BME280;45631;51.962;5.974;2023-03-21T01:24:23;101414.63;;;8.84;100.00
59757;BME280;45631;51.962;5.974;2023-03-21T01:26:52;101412.28;;;8.78;100.00
59757;BME280;45631;51.962;5.974;2023-03-21T01:29:21;101419.31;;;8.77;100.00
59757;BME280;45631;51.962;5.974;2023-03-21T01:31:49;101413.44;;;8.72;100.00
59757;BME280;45631;51.962;5.974;2023-03-21T01:34:18;101405.88;;;8.66;100.00
59757;BME280;45631;51.962;5.974;2023-03-21T01:36:46;101410.22;;;8.67;100.00
59757;BME280;45631;51.962;5.974;2023-03-21T01:39:16;101408.44;;;8.68;100.00
59757;BME280;45631;51.962;5.974;2023-03-21T01:41:45;101403.94;;;8.70;100.00
59757;BME280;45631;51.962;5.974;2023-03-21T01:44:14;101406.66;;;8.68;100.00
59757;BME280;45631;51.962;5.974;2023-03-21T01:46:45;101397.22;;;8.64;100.00
59757;BME280;45631;51.962;5.974;2023-03-21T01:49:35;101399.41;;;8.73;100.00
59757;BME280;45631;51.962;5.974;2023-03-21T01:52:07;101398.09;;;8.65;100.00
59757;BME280;45631;51.962;5.974;2023-03-21T01:54:45;101399.09;;;8.62;100.00
59757;BME280;45631;51.962;5.974;2023-03-21T01:57:20;101399.94;;;8.62;100.00
59757;BME280;45631;51.962;5.974;2023-03-21T01:59:53;101394.59;;;8.64;100.00
59757;BME280;45631;51.962;5.974;2023-03-21T02:02:25;101396.41;;;8.63;100.00
59757;BME280;45631;51.962;5.974;2023-03-21T02:04:54;101391.91;;;8.66;100.00
59757;BME280;45631;51.962;5.974;2023-03-21T02:07:27;101377.03;;;8.66;100.00
59757;BME280;45631;51.962;5.974;2023-03-21T02:09:59;101377.97;;;8.65;100.00
59757;BME280;45631;51.962;5.974;2023-03-21T02:12:30;101380.03;;;8.58;100.00
59757;BME280;45631;51.962;5.974;2023-03-21T02:15:01;101379.13;;;8.59;100.00
59757;BME280;45631;51.962;5.974;2023-03-21T02:17:34;101370.34;;;8.60;100.00
59757;BME280;45631;51.962;5.974;2023-03-21T02:23:35;101359.75;;;8.62;100.00
59757;BME280;45631;51.962;5.974;2023-03-21T02:26:47;101361.75;;;8.57;100.00
59757;BME280;45631;51.962;5.974;2023-03-21T02:30:10;101362.47;;;8.60;100.00
59757;BME280;45631;51.962;5.974;2023-03-21T02:36:01;101346.81;;;8.59;100.00
59757;BME280;45631;51.962;5.974;2023-03-21T02:38:47;101351.34;;;8.55;100.00
59757;BME280;45631;51.962;5.974;2023-03-21T02:41:24;101348.81;;;8.54;100.00
59757;BME280;45631;51.962;5.974;2023-03-21T02:44:09;101345.09;;;8.58;100.00
59757;BME280;45631;51.962;5.974;2023-03-21T02:46:44;101340.94;;;8.54;100.00
59757;BME280;45631;51.962;5.974;2023-03-21T02:49:34;101341.56;;;8.59;100.00
59757;BME280;45631;51.962;5.974;2023-03-21T02:52:13;101331.13;;;8.57;100.00
59757;BME280;45631;51.962;5.974;2023-03-21T02:54:56;101331.91;;;8.59;100.00
59757;BME280;45631;51.962;5.974;2023-03-21T02:57:25;101335.38;;;8.60;100.00
59757;BME280;45631;51.962;5.974;2023-03-21T03:00:10;101326.59;;;8.61;100.00
59757;BME280;45631;51.962;5.974;2023-03-21T03:02:43;101330.84;;;8.63;100.00
59757;BME280;45631;51.962;5.974;2023-03-21T03:05:16;101327.22;;;8.66;100.00
59757;BME280;45631;51.962;5.974;2023-03-21T03:07:58;101326.34;;;8.66;100.00
59757;BME280;45631;51.962;5.974;2023-03-21T03:10:46;101323.13;;;8.60;100.00
59757;BME280;45631;51.962;5.974;2023-03-21T03:13:28;101324.88;;;8.60;100.00
59757;BME280;45631;51.962;5.974;2023-03-21T03:16:10;101328.06;;;8.67;100.00
59757;BME280;45631;51.962;5.974;2023-03-21T03:18:48;101328.53;;;8.75;100.00
59757;BME280;45631;51.962;5.974;2023-03-21T03:21:22;101325.59;;;8.63;100.00
59757;BME280;45631;51.962;5.974;2023-03-21T03:23:53;101324.53;;;8.68;100.00
59757;BME280;45631;51.962;5.974;2023-03-21T03:26:25;101328.69;;;8.72;100.00
59757;BME280;45631;51.962;5.974;2023-03-21T03:29:00;101328.97;;;8.66;100.00
59757;BME280;45631;51.962;5.974;2023-03-21T03:31:32;101328.31;;;8.62;100.00
59757;BME280;45631;51.962;5.974;2023-03-21T03:34:05;101321.28;;;8.62;100.00
59757;BME280;45631;51.962;5.974;2023-03-21T03:36:38;101321.91;;;8.68;100.00
59757;BME280;45631;51.962;5.974;2023-03-21T03:39:08;101323.13;;;8.60;100.00
59757;BME280;45631;51.962;5.974;2023-03-21T03:41:44;101322.19;;;8.61;100.00
59757;BME280;45631;51.962;5.974;2023-03-21T03:44:34;101315.34;;;8.59;100.00
59757;BME280;45631;51.962;5.974;2023-03-21T03:47:06;101314.56;;;8.57;100.00
59757;BME280;45631;51.962;5.974;2023-03-21T03:49:43;101322.97;;;8.63;100.00
59757;BME280;45631;51.962;5.974;2023-03-21T03:52:17;101318.72;;;8.61;100.00
59757;BME280;45631;51.962;5.974;2023-03-21T03:54:48;101314.41;;;8.60;100.00
59757;BME280;45631;51.962;5.974;2023-03-21T03:57:20;101316.19;;;8.59;100.00
59757;BME280;45631;51.962;5.974;2023-03-21T03:59:49;101312.72;;;8.59;100.00
59757;BME280;45631;51.962;5.974;2023-03-21T04:02:17;101316.34;;;8.56;100.00
59757;BME280;45631;51.962;5.974;2023-03-21T04:04:46;101312.03;;;8.55;100.00
59757;BME280;45631;51.962;5.974;2023-03-21T04:07:19;101322.44;;;8.57;100.00
59757;BME280;45631;51.962;5.974;2023-03-21T04:09:48;101316.41;;;8.55;100.00
59757;BME280;45631;51.962;5.974;2023-03-21T04:12:19;101316.47;;;8.53;100.00
59757;BME280;45631;51.962;5.974;2023-03-21T04:14:47;101313.72;;;8.56;100.00
59757;BME280;45631;51.962;5.974;2023-03-21T04:17:19;101311.31;;;8.52;100.00
59757;BME280;45631;51.962;5.974;2023-03-21T04:19:47;101303.44;;;8.52;100.00
59757;BME280;45631;51.962;5.974;2023-03-21T04:22:23;101307.47;;;8.59;100.00
59757;BME280;45631;51.962;5.974;2023-03-21T04:24:53;101302.38;;;8.56;100.00
59757;BME280;45631;51.962;5.974;2023-03-21T04:27:23;101303.44;;;8.52;100.00
59757;BME280;45631;51.962;5.974;2023-03-21T04:29:51;101294.91;;;8.48;100.00
59757;BME280;45631;51.962;5.974;2023-03-21T04:32:22;101298.38;;;8.49;100.00
59757;BME280;45631;51.962;5.974;2023-03-21T04:34:51;101296.56;;;8.49;100.00
59757;BME280;45631;51.962;5.974;2023-03-21T04:37:20;101301.81;;;8.49;100.00
59757;BME280;45631;51.962;5.974;2023-03-21T04:39:49;101294.94;;;8.46;100.00
59757;BME280;45631;51.962;5.974;2023-03-21T04:42:18;101288.03;;;8.45;100.00
59757;BME280;45631;51.962;5.974;2023-03-21T04:44:48;101287.22;;;8.43;100.00
59757;BME280;45631;51.962;5.974;2023-03-21T04:47:17;101289.91;;;8.42;100.00
59757;BME280;45631;51.962;5.974;2023-03-21T04:49:48;101291.69;;;8.41;100.00
59757;BME280;45631;51.962;5.974;2023-03-21T04:52:16;101286.59;;;8.38;100.00
59757;BME280;45631;51.962;5.974;2023-03-21T04:54:45;101287.22;;;8.43;100.00
59757;BME280;45631;51.962;5.974;2023-03-21T04:57:13;101288.28;;;8.39;100.00
59757;BME280;45631;51.962;5.974;2023-03-21T04:59:42;101279.78;;;8.34;100.00
59757;BME280;45631;51.962;5.974;2023-03-21T05:02:14;101278.13;;;8.33;100.00
59757;BME280;45631;51.962;5.974;2023-03-21T05:04:43;101279.94;;;8.31;100.00
59757;BME280;45631;51.962;5.974;2023-03-21T05:07:11;101280.66;;;8.35;100.00
59757;BME280;45631;51.962;5.974;2023-03-21T05:09:40;101279.19;;;8.29;100.00
59757;BME280;45631;51.962;5.974;2023-03-21T05:12:08;101280.94;;;8.28;100.00
59757;BME280;45631;51.962;5.974;2023-03-21T05:14:37;101278.25;;;8.30;100.00
59757;BME280;45631;51.962;5.974;2023-03-21T05:17:05;101277.56;;;8.26;100.00
59757;BME280;45631;51.962;5.974;2023-03-21T05:19:37;101280.19;;;8.26;100.00
59757;BME280;45631;51.962;5.974;2023-03-21T05:22:08;101278.31;;;8.28;100.00
59757;BME280;45631;51.962;5.974;2023-03-21T05:24:37;101275.88;;;8.25;100.00
59757;BME280;45631;51.962;5.974;2023-03-21T05:27:08;101278.75;;;8.19;100.00
59757;BME280;45631;51.962;5.974;2023-03-21T05:29:36;101277.56;;;8.26;100.00
59757;BME280;45631;51.962;5.974;2023-03-21T05:32:04;101283.88;;;8.22;100.00
59757;BME280;45631;51.962;5.974;2023-03-21T05:34:33;101283.97;;;8.21;100.00
59757;BME280;45631;51.962;5.974;2023-03-21T05:37:03;101284.72;;;8.23;100.00
59757;BME280;45631;51.962;5.974;2023-03-21T05:39:31;101279.63;;;8.20;100.00
59757;BME280;45631;51.962;5.974;2023-03-21T05:42:00;101285.78;;;8.19;100.00
59757;BME280;45631;51.962;5.974;2023-03-21T05:44:28;101288.34;;;8.20;100.00
59757;BME280;45631;51.962;5.974;2023-03-21T05:46:57;101278.63;;;8.22;100.00
59757;BME280;45631;51.962;5.974;2023-03-21T05:49:25;101272.25;;;8.28;100.00
59757;BME280;45631;51.962;5.974;2023-03-21T05:51:54;101272.31;;;8.26;100.00
59757;BME280;45631;51.962;5.974;2023-03-21T05:54:24;101275.06;;;8.23;100.00
59757;BME280;45631;51.962;5.974;2023-03-21T05:56:53;101271.38;;;8.27;100.00
59757;BME280;45631;51.962;5.974;2023-03-21T05:59:22;101262.59;;;8.28;100.00
59757;BME280;45631;51.962;5.974;2023-03-21T06:01:50;101265.38;;;8.25;100.00
59757;BME280;45631;51.962;5.974;2023-03-21T06:04:18;101260.69;;;8.32;100.00
59757;BME280;45631;51.962;5.974;2023-03-21T06:06:47;101261.84;;;8.26;100.00
59757;BME280;45631;51.962;5.974;2023-03-21T06:09:16;101260.84;;;8.29;100.00
59757;BME280;45631;51.962;5.974;2023-03-21T06:11:48;101262.75;;;8.25;100.00
59757;BME280;45631;51.962;5.974;2023-03-21T06:14:18;101260.13;;;8.25;100.00
59757;BME280;45631;51.962;5.974;2023-03-21T06:16:49;101259.31;;;8.25;100.00
59757;BME280;45631;51.962;5.974;2023-03-21T06:19:20;101258.59;;;8.21;100.00
59757;BME280;45631;51.962;5.974;2023-03-21T06:21:48;101248.94;;;8.22;100.00
59757;BME280;45631;51.962;5.974;2023-03-21T06:24:17;101258.59;;;8.21;100.00
59757;BME280;45631;51.962;5.974;2023-03-21T06:26:47;101256.59;;;8.26;100.00
59757;BME280;45631;51.962;5.974;2023-03-21T06:29:16;101261.84;;;8.26;100.00
59757;BME280;45631;51.962;5.974;2023-03-21T06:31:44;101263.53;;;8.27;100.00
59757;BME280;45631;51.962;5.974;2023-03-21T06:34:13;101260.13;;;8.25;100.00
59757;BME280;45631;51.962;5.974;2023-03-21T06:36:41;101257.38;;;8.28;100.00
59757;BME280;45631;51.962;5.974;2023-03-21T06:39:10;101258.16;;;8.31;100.00
59757;BME280;45631;51.962;5.974;2023-03-21T06:41:39;101256.69;;;8.25;100.00
59757;BME280;45631;51.962;5.974;2023-03-21T06:44:09;101255.75;;;8.26;100.00
59757;BME280;45631;51.962;5.974;2023-03-21T06:46:38;101258.34;;;8.26;100.00
59757;BME280;45631;51.962;5.974;2023-03-21T06:49:07;101254.81;;;8.27;100.00
59757;BME280;45631;51.962;5.974;2023-03-21T06:51:35;101257.38;;;8.28;100.00
59757;BME280;45631;51.962;5.974;2023-03-21T06:54:04;101260.63;;;8.34;100.00
59757;BME280;45631;51.962;5.974;2023-03-21T06:56:33;101266.66;;;8.36;100.00
59757;BME280;45631;51.962;5.974;2023-03-21T06:59:01;101262.25;;;8.36;100.00
59757;BME280;45631;51.962;5.974;2023-03-21T07:01:31;101258.78;;;8.36;100.00
59757;BME280;45631;51.962;5.974;2023-03-21T07:04:00;101256.84;;;8.39;100.00
59757;BME280;45631;51.962;5.974;2023-03-21T07:06:28;101260.25;;;8.41;100.00
59757;BME280;45631;51.962;5.974;2023-03-21T07:08:57;101262.78;;;8.43;100.00
59757;BME280;45631;51.962;5.974;2023-03-21T07:11:26;101260.94;;;8.45;100.00
59757;BME280;45631;51.962;5.974;2023-03-21T07:13:55;101252.09;;;8.48;100.00
59757;BME280;45631;51.962;5.974;2023-03-21T07:16:23;101253.47;;;8.55;100.00
59757;BME280;45631;51.962;5.974;2023-03-21T07:18:53;101256.88;;;8.57;100.00
59757;BME280;45631;51.962;5.974;2023-03-21T07:21:22;101253.25;;;8.59;100.00
59757;BME280;45631;51.962;5.974;2023-03-21T07:23:51;101256.72;;;8.60;100.00
59757;BME280;45631;51.962;5.974;2023-03-21T07:26:19;101257.44;;;8.63;100.00
59757;BME280;45631;51.962;5.974;2023-03-21T07:28:48;101268.63;;;8.67;100.00
59757;BME280;45631;51.962;5.974;2023-03-21T07:31:17;101262.34;;;8.70;100.00
59757;BME280;45631;51.962;5.974;2023-03-21T07:33:45;101259.59;;;8.73;100.00
59757;BME280;45631;51.962;5.974;2023-03-21T07:36:15;101256.72;;;8.77;100.00
59757;BME280;45631;51.962;5.974;2023-03-21T07:38:44;101254.81;;;8.81;100.00
59757;BME280;45631;51.962;5.974;2023-03-21T07:41:13;101256.25;;;8.87;100.00
59757;BME280;45631;51.962;5.974;2023-03-21T07:43:46;101264.75;;;8.92;100.00
59757;BME280;45631;51.962;5.974;2023-03-21T07:46:15;101261.13;;;8.94;100.00
59757;BME280;45631;51.962;5.974;2023-03-21T07:48:43;101260.78;;;9.01;100.00
59757;BME280;45631;51.962;5.974;2023-03-21T07:51:12;101263.19;;;9.05;100.00
59757;BME280;45631;51.962;5.974;2023-03-21T07:53:42;101265.88;;;9.04;100.00
59757;BME280;45631;51.962;5.974;2023-03-21T07:56:14;101267.34;;;9.09;100.00
59757;BME280;45631;51.962;5.974;2023-03-21T07:58:43;101266.41;;;9.10;100.00
59757;BME280;45631;51.962;5.974;2023-03-21T08:01:11;101266.66;;;9.06;100.00
59757;BME280;45631;51.962;5.974;2023-03-21T08:03:40;101266.66;;;9.06;100.00
59757;BME280;45631;51.962;5.974;2023-03-21T08:06:09;101271.72;;;9.09;100.00
59757;BME280;45631;51.962;5.974;2023-03-21T08:08:38;101268.34;;;9.07;100.00
59757;BME280;45631;51.962;5.974;2023-03-21T08:11:10;101276.88;;;9.10;100.00
59757;BME280;45631;51.962;5.974;2023-03-21T08:13:39;101273.44;;;9.10;100.00
59757;BME280;45631;51.962;5.974;2023-03-21T08:16:08;101268.34;;;9.07;100.00
59757;BME280;45631;51.962;5.974;2023-03-21T08:18:36;101267.47;;;9.06;100.00
59757;BME280;45631;51.962;5.974;2023-03-21T08:21:06;101265.72;;;9.07;100.00
59757;BME280;45631;51.962;5.974;2023-03-21T08:23:35;101263.25;;;9.04;100.00
59757;BME280;45631;51.962;5.974;2023-03-21T08:26:04;101266.00;;;9.18;100.00
59757;BME280;45631;51.962;5.974;2023-03-21T08:28:35;101261.19;;;9.26;100.00
59757;BME280;45631;51.962;5.974;2023-03-21T08:31:06;101259.66;;;9.22;100.00
59757;BME280;45631;51.962;5.974;2023-03-21T08:33:35;101251.09;;;9.19;100.00
59757;BME280;45631;51.962;5.974;2023-03-21T08:36:05;101250.09;;;9.21;100.00
59757;BME280;45631;51.962;5.974;2023-03-21T08:38:33;101249.16;;;9.22;100.00
59757;BME280;45631;51.962;5.974;2023-03-21T08:41:03;101251.78;;;9.22;100.00
59757;BME280;45631;51.962;5.974;2023-03-21T08:43:31;101243.13;;;9.20;100.00
59757;BME280;45631;51.962;5.974;2023-03-21T08:46:01;101245.63;;;9.23;100.00
59757;BME280;45631;51.962;5.974;2023-03-21T08:48:30;101241.13;;;9.25;100.00
59757;BME280;45631;51.962;5.974;2023-03-21T08:50:59;101240.81;;;9.32;100.00
59757;BME280;45631;51.962;5.974;2023-03-21T08:53:28;101241.56;;;9.34;100.00
59757;BME280;45631;51.962;5.974;2023-03-21T08:55:56;101248.44;;;9.36;100.00
59757;BME280;45631;51.962;5.974;2023-03-21T08:58:25;101239.72;;;9.36;100.00
59757;BME280;45631;51.962;5.974;2023-03-21T09:00:53;101237.00;;;9.37;100.00
59757;BME280;45631;51.962;5.974;2023-03-21T09:03:23;101240.91;;;9.46;100.00
59757;BME280;45631;51.962;5.974;2023-03-21T09:05:53;101242.38;;;9.52;100.00
59757;BME280;45631;51.962;5.974;2023-03-21T09:08:22;101238.13;;;9.49;100.00
59757;BME280;45631;51.962;5.974;2023-03-21T09:10:52;101233.03;;;9.46;100.00
59757;BME280;45631;51.962;5.974;2023-03-21T09:13:21;101233.72;;;9.50;100.00
59757;BME280;45631;51.962;5.974;2023-03-21T09:15:49;101235.75;;;9.60;100.00
59757;BME280;45631;51.962;5.974;2023-03-21T09:18:19;101234.97;;;9.58;100.00
59757;BME280;45631;51.962;5.974;2023-03-21T09:21:08;101230.50;;;9.60;100.00
59757;BME280;45631;51.962;5.974;2023-03-21T09:23:39;101229.31;;;9.66;100.00
59757;BME280;45631;51.962;5.974;2023-03-21T09:26:08;101226.28;;;9.74;100.00
59757;BME280;45631;51.962;5.974;2023-03-21T09:28:36;101220.56;;;9.81;100.00
59757;BME280;45631;51.962;5.974;2023-03-21T09:31:06;101219.41;;;9.87;100.00
59757;BME280;45631;51.962;5.974;2023-03-21T09:33:37;101211.53;;;9.87;100.00
59757;BME280;45631;51.962;5.974;2023-03-21T09:36:09;101215.75;;;9.90;100.00
59757;BME280;45631;51.962;5.974;2023-03-21T09:38:40;101218.13;;;9.94;100.00
59757;BME280;45631;51.962;5.974;2023-03-21T09:41:24;101209.03;;;9.84;100.00
59757;BME280;45631;51.962;5.974;2023-03-21T09:44:07;101211.34;;;9.90;100.00
59757;BME280;45631;51.962;5.974;2023-03-21T09:46:42;101210.41;;;9.91;100.00
59757;BME280;45631;51.962;5.974;2023-03-21T09:49:16;101211.16;;;9.93;100.00
59757;BME280;45631;51.962;5.974;2023-03-21T09:51:49;101205.31;;;10.04;100.00
59757;BME280;45631;51.962;5.974;2023-03-21T09:54:22;101196.09;;;9.97;100.00
59757;BME280;45631;51.962;5.974;2023-03-21T09:56:54;101198.53;;;9.84;100.00
59757;BME280;45631;51.962;5.974;2023-03-21T09:59:28;101199.91;;;9.91;100.00
59757;BME280;45631;51.962;5.974;2023-03-21T10:02:03;101191.25;;;9.89;100.00
59757;BME280;45631;51.962;5.974;2023-03-21T10:04:31;101192.19;;;9.88;100.00
59757;BME280;45631;51.962;5.974;2023-03-21T10:07:04;101186.09;;;9.88;100.00
59757;BME280;45631;51.962;5.974;2023-03-21T10:09:33;101196.25;;;9.94;100.00
59757;BME280;45631;51.962;5.974;2023-03-21T10:12:05;101190.06;;;9.95;100.00
59757;BME280;45631;51.962;5.974;2023-03-21T10:14:38;101175.28;;;10.08;100.00
59757;BME280;45631;51.962;5.974;2023-03-21T10:17:21;101170.84;;;10.09;100.00
59757;BME280;45631;51.962;5.974;2023-03-21T10:19:56;101162.97;;;10.09;100.00
59757;BME280;45631;51.962;5.974;2023-03-21T10:22:39;101163.16;;;10.06;100.00
59757;BME280;45631;51.962;5.974;2023-03-21T10:25:15;101148.38;;;10.19;100.00
59757;BME280;45631;51.962;5.974;2023-03-21T10:27:45;101149.31;;;10.18;100.00
59757;BME280;45631;51.962;5.974;2023-03-21T10:30:20;101152.31;;;10.26;100.00
59757;BME280;45631;51.962;5.974;2023-03-21T10:32:54;101143.94;;;10.36;100.00
59757;BME280;45631;51.962;5.974;2023-03-21T10:35:25;101145.53;;;10.38;100.00
59757;BME280;45631;51.962;5.974;2023-03-21T10:37:55;101141.16;;;10.53;100.00
59757;BME280;45631;51.962;5.974;2023-03-21T10:40:24;101145.47;;;10.54;100.00
59757;BME280;45631;51.962;5.974;2023-03-21T10:42:54;101150.34;;;10.46;100.00
59757;BME280;45631;51.962;5.974;2023-03-21T10:45:23;101140.13;;;10.56;100.00
59757;BME280;45631;51.962;5.974;2023-03-21T10:47:54;101139.09;;;10.58;100.00
59757;BME280;45631;51.962;5.974;2023-03-21T10:50:28;101141.25;;;10.66;100.00
59757;BME280;45631;51.962;5.974;2023-03-21T10:52:59;101135.81;;;10.69;100.00
59757;BME280;45631;51.962;5.974;2023-03-21T10:55:29;101134.69;;;10.73;100.00
59757;BME280;45631;51.962;5.974;2023-03-21T10:58:01;101138.16;;;10.74;100.00
59757;BME280;45631;51.962;5.974;2023-03-21T11:00:36;101133.34;;;10.80;100.00
59757;BME280;45631;51.962;5.974;2023-03-21T11:03:18;101128.75;;;10.84;100.00
59757;BME280;45631;51.962;5.974;2023-03-21T11:05:52;101135.03;;;10.96;100.00
59757;BME280;45631;51.962;5.974;2023-03-21T11:08:24;101123.09;;;11.05;100.00
59757;BME280;45631;51.962;5.974;2023-03-21T11:10:59;101129.09;;;11.07;100.00
59757;BME280;45631;51.962;5.974;2023-03-21T11:13:33;101125.41;;;11.24;100.00
59757;BME280;45631;51.962;5.974;2023-03-21T11:16:06;101122.47;;;11.43;100.00
59757;BME280;45631;51.962;5.974;2023-03-21T11:18:40;101121.41;;;11.45;100.00
59757;BME280;45631;51.962;5.974;2023-03-21T11:21:11;101128.06;;;11.51;100.00
59757;BME280;45631;51.962;5.974;2023-03-21T11:23:43;101124.69;;;11.49;100.00
59757;BME280;45631;51.962;5.974;2023-03-21T11:26:18;101129.13;;;11.48;100.00
59757;BME280;45631;51.962;5.974;2023-03-21T11:28:50;101123.28;;;11.43;100.00
59757;BME280;45631;51.962;5.974;2023-03-21T11:31:19;101120.28;;;11.49;100.00
59757;BME280;45631;51.962;5.974;2023-03-21T11:33:52;101126.63;;;11.60;100.00
59757;BME280;45631;51.962;5.974;2023-03-21T11:36:30;101123.78;;;11.63;100.00
59757;BME280;45631;51.962;5.974;2023-03-21T11:39:13;101127.50;;;11.60;100.00
59757;BME280;45631;51.962;5.974;2023-03-21T11:41:46;101132.47;;;11.78;100.00
59757;BME280;45631;51.962;5.974;2023-03-21T11:44:30;101134.03;;;11.67;100.00
59757;BME280;45631;51.962;5.974;2023-03-21T11:47:00;101116.47;;;11.81;100.00
59757;BME280;45631;51.962;5.974;2023-03-21T11:49:29;101116.03;;;12.02;100.00
59757;BME280;45631;51.962;5.974;2023-03-21T11:52:08;101120.81;;;12.09;100.00
59757;BME280;45631;51.962;5.974;2023-03-21T11:57:35;101110.22;;;11.96;100.00
59757;BME280;45631;51.962;5.974;2023-03-21T12:00:15;101103.28;;;12.08;100.00
59757;BME280;45631;51.962;5.974;2023-03-21T12:03:18;101097.06;;;12.22;100.00
59757;BME280;45631;51.962;5.974;2023-03-21T12:05:53;101102.34;;;12.22;100.00
59757;BME280;45631;51.962;5.974;2023-03-21T12:08:32;101091.38;;;12.28;100.00
59757;BME280;45631;51.962;5.974;2023-03-21T12:11:10;101089.06;;;12.37;100.00
59757;BME280;45631;51.962;5.974;2023-03-21T12:13:52;101084.50;;;12.51;100.00
59757;BME280;45631;51.962;5.974;2023-03-21T12:16:31;101080.94;;;12.40;100.00
59757;BME280;45631;51.962;5.974;2023-03-21T12:19:12;101085.16;;;12.55;100.00
59757;BME280;45631;51.962;5.974;2023-03-21T12:21:49;101082.91;;;12.62;100.00
59757;BME280;45631;51.962;5.974;2023-03-21T12:24:23;101081.41;;;12.71;100.00
59757;BME280;45631;51.962;5.974;2023-03-21T12:27:03;101082.16;;;12.73;100.00
59757;BME280;45631;51.962;5.974;2023-03-21T12:29:49;101078.06;;;12.68;100.00
59757;BME280;45631;51.962;5.974;2023-03-21T12:32:35;101081.78;;;12.53;100.00
59757;BME280;45631;51.962;5.974;2023-03-21T12:35:22;101074.50;;;12.44;100.00
59757;BME280;45631;51.962;5.974;2023-03-21T12:38:02;101067.13;;;12.49;100.00
59757;BME280;45631;51.962;5.974;2023-03-21T12:40:41;101066.91;;;12.52;100.00
59757;BME280;45631;51.962;5.974;2023-03-21T12:43:29;101058.53;;;12.58;100.00
59757;BME280;45631;51.962;5.974;2023-03-21T12:46:03;101050.09;;;12.66;100.00
59757;BME280;45631;51.962;5.974;2023-03-21T12:48:38;101062.66;;;12.62;100.00
59757;BME280;45631;51.962;5.974;2023-03-21T12:51:11;101056.97;;;12.68;100.00
59757;BME280;45631;51.962;5.974;2023-03-21T12:53:54;101050.44;;;12.61;100.00
59757;BME280;45631;51.962;5.974;2023-03-21T12:56:28;101061.50;;;12.54;100.00
59757;BME280;45631;51.962;5.974;2023-03-21T12:59:07;101052.84;;;12.51;100.00
59757;BME280;45631;51.962;5.974;2023-03-21T13:01:39;101048.53;;;12.50;100.00
59757;BME280;45631;51.962;5.974;2023-03-21T13:04:26;101044.19;;;12.62;100.00
59757;BME280;45631;51.962;5.974;2023-03-21T13:07:01;101038.09;;;12.49;100.00
59757;BME280;45631;51.962;5.974;2023-03-21T13:09:34;101044.19;;;12.62;100.00
59757;BME280;45631;51.962;5.974;2023-03-21T13:12:15;101038.03;;;12.75;100.00
59757;BME280;45631;51.962;5.974;2023-03-21T13:14:58;101035.03;;;12.92;100.00
59757;BME280;45631;51.962;5.974;2023-03-21T13:17:40;101038.25;;;13.09;100.00
59757;BME280;45631;51.962;5.974;2023-03-21T13:20:18;101037.53;;;13.07;100.00
59757;BME280;45631;51.962;5.974;2023-03-21T13:22:49;101038.88;;;13.12;100.00
59757;BME280;45631;51.962;5.974;2023-03-21T13:25:19;101035.84;;;13.06;100.00
59757;BME280;45631;51.962;5.974;2023-03-21T13:27:52;101020.75;;;13.08;100.00